< < Back
Terminal Aerodrome Forecast


Current Version              Previous Versions:   1  2  3  4  5  6  7  8  9  

Terminal Aerodrome Forecast

701
FTUS44 KOHX 252127 AAA
TAFBNA
TAF AMD
KBNA 252127Z 2521/2618 09010G18KT 3SM TSRA BKN040CB BKN100 BKN250
     FM252200 26006KT P6SM VCTS SCT040CB BKN100 BKN250
     FM260100 18002KT P6SM SCT250
     FM261000 02001KT 4SM BR SCT250
     FM261300 08005KT P6SM SCT250=

Latest METAR

502
SAUS70 KWBC 261000 RRF
MTRBNA
METAR KBNA 260953Z COR 05003KT 10SM BCFG FEW002 24/23 A3010 RMK AO2
SLP185 T02440233


USA.gov is the U.S. government's official web portal to all federal, state and local government web resources and services.